createdAt,value
2018-04-14T00:00:33.497Z,100059.38
2018-04-14T00:03:02.028Z,100069.10
2018-04-14T00:05:30.496Z,100069.65
2018-04-14T00:07:58.960Z,100063.87
2018-04-14T00:10:27.469Z,100064.44
2018-04-14T00:12:55.990Z,100066.06
2018-04-14T00:15:24.526Z,100071.67
2018-04-14T00:17:53.001Z,100077.16
2018-04-14T00:20:21.483Z,100071.27
2018-04-14T00:22:50.024Z,100069.05
2018-04-14T00:25:18.529Z,100068.80
2018-04-14T00:27:47.000Z,100079.18
2018-04-14T00:30:15.472Z,100070.97
2018-04-14T00:32:43.995Z,100073.52
2018-04-14T00:35:12.484Z,100083.39
2018-04-14T00:37:40.948Z,100075.83
2018-04-14T00:40:09.474Z,100077.87
2018-04-14T00:42:37.936Z,100082.33
2018-04-14T00:45:06.430Z,100078.33
2018-04-14T00:47:34.892Z,100077.41
2018-04-14T00:50:03.401Z,100066.67
2018-04-14T00:52:31.904Z,100065.16
2018-04-14T00:55:00.419Z,100077.77
2018-04-14T00:57:28.904Z,100073.80
2018-04-14T00:59:57.385Z,100078.06
2018-04-14T01:02:25.908Z,100072.59
2018-04-14T01:04:54.390Z,100068.75
2018-04-14T01:07:22.903Z,100070.77
2018-04-14T01:09:51.401Z,100074.16
2018-04-14T01:12:19.888Z,100074.85
2018-04-14T01:14:48.400Z,100083.02
2018-04-14T01:17:16.909Z,100084.94
2018-04-14T01:19:45.462Z,100083.00
2018-04-14T01:22:13.996Z,100090.81
2018-04-14T01:24:42.533Z,100081.33
2018-04-14T01:27:11.040Z,100096.92
2018-04-14T01:29:39.541Z,100093.06
2018-04-14T01:32:08.000Z,100099.07
2018-04-14T01:34:36.530Z,100099.14
2018-04-14T01:37:04.992Z,100100.63
2018-04-14T01:39:33.508Z,100100.99
2018-04-14T01:42:02.046Z,100104.80
2018-04-14T01:44:30.505Z,100107.25
2018-04-14T01:46:59.012Z,100119.50
2018-04-14T01:49:27.484Z,100117.70
2018-04-14T01:51:56.009Z,100123.42
2018-04-14T01:54:24.449Z,100120.56
2018-04-14T01:56:52.988Z,100122.30
2018-04-14T01:59:21.449Z,100124.05
2018-04-14T02:01:49.916Z,100115.02
2018-04-14T02:04:18.433Z,100128.15
2018-04-14T02:06:46.911Z,100132.94
2018-04-14T02:09:15.452Z,100133.33
2018-04-14T02:11:44.006Z,100128.62
2018-04-14T02:14:12.518Z,100130.12
2018-04-14T02:16:41.114Z,100135.84
2018-04-14T02:19:09.596Z,100143.75
2018-04-14T02:21:38.068Z,100141.81
2018-04-14T02:24:06.564Z,100145.44
2018-04-14T02:26:35.085Z,100142.61
2018-04-14T02:29:03.571Z,100142.82
2018-04-14T02:31:32.070Z,100150.64
2018-04-14T02:34:00.577Z,100144.75
2018-04-14T02:36:29.021Z,100144.70
2018-04-14T02:38:57.516Z,100158.05
2018-04-14T02:41:25.981Z,100150.91
2018-04-14T02:43:54.497Z,100147.02
2018-04-14T02:46:22.960Z,100160.11
2018-04-14T02:48:51.491Z,100157.77
2018-04-14T02:51:19.959Z,100164.43
2018-04-14T02:53:48.444Z,100167.67
2018-04-14T02:56:16.944Z,100164.54
2018-04-14T02:58:45.452Z,100163.02
2018-04-14T03:01:13.991Z,100166.92
2018-04-14T03:03:42.479Z,100166.75
2018-04-14T03:06:10.948Z,100167.11
2018-04-14T03:08:39.476Z,100172.95
2018-04-14T03:11:07.946Z,100172.76
2018-04-14T03:13:36.484Z,100173.00
2018-04-14T03:16:04.992Z,100175.32
2018-04-14T03:18:33.514Z,100179.11
2018-04-14T03:21:01.989Z,100166.28
2018-04-14T03:23:30.895Z,100173.70
2018-04-14T03:25:59.375Z,100173.44
2018-04-14T03:28:27.882Z,100158.05
2018-04-14T03:30:56.435Z,100170.55
2018-04-14T03:33:24.953Z,100171.09
2018-04-14T03:35:53.440Z,100166.39
2018-04-14T03:38:21.941Z,100162.35
2018-04-14T03:40:50.402Z,100172.15
2018-04-14T03:43:18.864Z,100181.29
2018-04-14T03:45:47.338Z,100177.20
2018-04-14T03:48:15.842Z,100183.47
2018-04-14T03:50:44.352Z,100181.42
2018-04-14T03:53:12.813Z,100186.72
2018-04-14T03:55:41.327Z,100184.03
2018-04-14T03:58:09.835Z,100181.09
2018-04-14T04:00:38.336Z,100184.80
2018-04-14T04:03:06.833Z,100191.22
2018-04-14T04:05:35.340Z,100186.12
2018-04-14T04:08:03.872Z,100182.16
2018-04-14T04:10:32.367Z,100187.59
2018-04-14T04:13:00.892Z,100197.99
2018-04-14T04:15:29.381Z,100195.00
2018-04-14T04:17:57.876Z,100190.06
2018-04-14T04:20:39.014Z,100183.37
2018-04-14T04:23:19.252Z,100196.55
2018-04-14T04:25:47.490Z,100196.31
2018-04-14T04:28:15.731Z,100201.98
2018-04-14T04:30:43.912Z,100203.48
2018-04-14T04:33:12.164Z,100201.55
2018-04-14T04:35:40.335Z,100202.89
2018-04-14T04:38:08.544Z,100209.73
2018-04-14T04:40:36.728Z,100207.47
2018-04-14T04:43:04.944Z,100211.80
2018-04-14T04:45:33.182Z,100201.45
2018-04-14T04:48:01.356Z,100206.87
2018-04-14T04:50:29.533Z,100212.15
2018-04-14T04:52:57.729Z,100215.87
2018-04-14T04:55:25.896Z,100224.76
2018-04-14T04:57:54.110Z,100227.48
2018-04-14T05:00:22.294Z,100226.99
2018-04-14T05:02:50.500Z,100224.20
2018-04-14T05:05:18.684Z,100232.69
2018-04-14T05:07:46.919Z,100230.07
2018-04-14T05:10:15.103Z,100235.47
2018-04-14T05:12:43.272Z,100238.30
2018-04-14T05:15:11.484Z,100233.41
2018-04-14T05:17:39.670Z,100234.00
2018-04-14T05:20:07.870Z,100234.15
2018-04-14T05:22:36.041Z,100249.40
2018-04-14T05:25:04.267Z,100238.61
2018-04-14T05:27:32.466Z,100253.96
2018-04-14T05:30:00.657Z,100247.68
2018-04-14T05:32:28.879Z,100253.02
2018-04-14T05:34:57.057Z,100247.54
2018-04-14T05:37:25.286Z,100252.48
2018-04-14T05:39:53.461Z,100256.45
2018-04-14T05:42:21.680Z,100257.05
2018-04-14T05:44:49.889Z,100262.64
2018-04-14T05:47:18.057Z,100268.42
2018-04-14T05:49:46.282Z,100262.53
2018-04-14T05:52:14.499Z,100267.31
2018-04-14T05:54:42.730Z,100258.13
2018-04-14T05:57:10.922Z,100264.67
2018-04-14T05:59:39.111Z,100265.18
2018-04-14T06:02:07.328Z,100264.89
2018-04-14T06:04:35.495Z,100266.66
2018-04-14T06:07:03.700Z,100264.74
2018-04-14T06:09:31.942Z,100269.38
2018-04-14T06:12:00.134Z,100268.59
2018-04-14T06:14:28.308Z,100274.02
2018-04-14T06:16:56.530Z,100276.64
2018-04-14T06:19:24.708Z,100276.42
2018-04-14T06:21:52.925Z,100272.05
2018-04-14T06:24:21.116Z,100274.67
2018-04-14T06:26:49.337Z,100279.55
2018-04-14T06:29:17.543Z,100280.18
2018-04-14T06:31:45.760Z,100278.75
2018-04-14T06:34:13.998Z,100279.14
2018-04-14T06:36:42.177Z,100271.75
2018-04-14T06:39:10.400Z,100273.38
2018-04-14T06:41:38.600Z,100277.42
2018-04-14T06:44:06.826Z,100282.73
2018-04-14T06:46:35.131Z,100282.48
2018-04-14T06:49:03.309Z,100282.33
2018-04-14T06:51:31.543Z,100285.98
2018-04-14T06:53:59.757Z,100280.91
2018-04-14T06:56:27.985Z,100281.77
2018-04-14T06:58:56.169Z,100289.02
2018-04-14T07:01:24.394Z,100293.31
2018-04-14T07:03:52.568Z,100291.87
2018-04-14T07:06:20.793Z,100276.32
2018-04-14T07:08:48.980Z,100282.92
2018-04-14T07:11:17.156Z,100294.02
2018-04-14T07:13:45.416Z,100302.78
2018-04-14T07:16:13.584Z,100302.84
2018-04-14T07:18:41.777Z,100304.11
2018-04-14T07:21:09.948Z,100306.34
2018-04-14T07:23:38.165Z,100307.25
2018-04-14T07:26:06.324Z,100309.02
2018-04-14T07:28:34.536Z,100301.53
2018-04-14T07:31:02.717Z,100307.35
2018-04-14T07:33:31.024Z,100303.20
2018-04-14T07:35:59.200Z,100305.27
2018-04-14T07:38:27.381Z,100297.09
2018-04-14T07:40:55.588Z,100305.03
2018-04-14T07:43:23.760Z,100298.34
2018-04-14T07:45:51.980Z,100300.24
2018-04-14T07:48:20.153Z,100293.95
2018-04-14T07:50:48.372Z,100302.76
2018-04-14T07:53:16.553Z,100309.52
2018-04-14T07:55:44.737Z,100309.97
2018-04-14T07:58:12.979Z,100311.67
2018-04-14T08:00:41.186Z,100315.48
2018-04-14T08:03:09.419Z,100310.86
2018-04-14T08:05:37.632Z,100315.64
2018-04-14T08:08:05.842Z,100311.92
2018-04-14T08:10:34.012Z,100318.72
2018-04-14T08:13:02.244Z,100316.34
2018-04-14T08:15:30.438Z,100315.47
2018-04-14T08:17:58.617Z,100315.59
2018-04-14T08:20:26.825Z,100316.27
2018-04-14T08:22:55.029Z,100313.75
2018-04-14T08:25:23.244Z,100313.55
2018-04-14T08:27:51.459Z,100311.63
2018-04-14T08:30:19.648Z,100312.50
2018-04-14T08:32:47.856Z,100316.96
2018-04-14T08:35:16.032Z,100314.91
2018-04-14T08:37:44.257Z,100307.63
2018-04-14T08:40:12.451Z,100309.50
2018-04-14T08:42:40.636Z,100314.61
2018-04-14T08:45:08.853Z,100306.72
2018-04-14T08:47:37.028Z,100306.02
2018-04-14T08:50:05.248Z,100306.95
2018-04-14T08:52:33.418Z,100307.99
2018-04-14T08:55:01.592Z,100298.73
2018-04-14T08:57:29.797Z,100292.89
2018-04-14T08:59:57.981Z,100288.87
2018-04-14T09:02:26.197Z,100295.63
2018-04-14T09:04:54.376Z,100296.05
2018-04-14T09:07:22.592Z,100285.22
2018-04-14T09:09:50.780Z,100287.74
2018-04-14T09:12:19.008Z,100274.20
2018-04-14T09:14:47.229Z,100286.56
2018-04-14T09:17:15.421Z,100276.97
2018-04-14T09:19:43.923Z,100275.83
2018-04-14T09:22:12.401Z,100274.86
2018-04-14T09:24:40.912Z,100272.69
2018-04-14T09:27:09.400Z,100275.96
2018-04-14T09:29:37.908Z,100281.42
2018-04-14T09:32:06.373Z,100271.45
2018-04-14T09:34:34.884Z,100278.66
2018-04-14T09:37:03.400Z,100272.21
2018-04-14T09:39:31.955Z,100270.10
2018-04-14T09:42:00.438Z,100269.11
2018-04-14T09:44:28.941Z,100267.69
2018-04-14T09:46:57.449Z,100263.45
2018-04-14T09:49:25.948Z,100268.50
2018-04-14T09:51:54.408Z,100268.25
2018-04-14T09:54:22.908Z,100268.00
2018-04-14T09:56:51.413Z,100259.84
2018-04-14T09:59:19.927Z,100247.81
2018-04-14T10:01:51.207Z,100248.85
2018-04-14T10:04:19.749Z,100244.90
2018-04-14T10:06:48.208Z,100248.26
2018-04-14T10:09:16.709Z,100250.73
2018-04-14T10:11:45.230Z,100248.16
2018-04-14T10:14:13.700Z,100242.67
2018-04-14T10:16:42.172Z,100240.69
2018-04-14T10:19:10.681Z,100239.71
2018-04-14T10:21:39.288Z,100231.58
2018-04-14T10:24:07.824Z,100228.30
2018-04-14T10:26:36.312Z,100225.19
2018-04-14T10:29:04.807Z,100224.88
2018-04-14T10:31:33.326Z,100224.00
2018-04-14T10:34:01.855Z,100224.39
2018-04-14T10:36:30.330Z,100223.06
2018-04-14T10:38:58.824Z,100215.78
2018-04-14T10:41:27.328Z,100218.70
2018-04-14T10:43:55.808Z,100209.36
2018-04-14T10:46:24.299Z,100213.86
2018-04-14T10:48:52.764Z,100216.47
2018-04-14T10:51:21.272Z,100204.97
2018-04-14T10:53:49.786Z,100207.55
2018-04-14T10:56:18.250Z,100204.82
2018-04-14T10:58:46.749Z,100212.08
2018-04-14T11:01:15.215Z,100207.91
2018-04-14T11:03:43.712Z,100208.13
2018-04-14T11:06:12.172Z,100203.00
2018-04-14T11:08:40.628Z,100196.81
2018-04-14T11:11:09.143Z,100197.16
2018-04-14T11:13:37.658Z,100205.58
2018-04-14T11:16:06.167Z,100201.53
2018-04-14T11:18:34.635Z,100191.70
2018-04-14T11:21:03.136Z,100197.33
2018-04-14T11:23:31.893Z,100194.04
2018-04-14T11:26:00.396Z,100191.06
2018-04-14T11:28:28.861Z,100197.00
2018-04-14T11:30:57.363Z,100188.98
2018-04-14T11:33:25.820Z,100188.19
2018-04-14T11:35:54.316Z,100189.98
2018-04-14T11:38:22.787Z,100181.95
2018-04-14T11:40:51.307Z,100178.08
2018-04-14T11:43:19.764Z,100180.63
2018-04-14T11:45:48.268Z,100179.31
2018-04-14T11:48:16.732Z,100174.19
2018-04-14T11:50:45.250Z,100168.92
2018-04-14T11:53:13.718Z,100170.02
2018-04-14T11:55:42.216Z,100168.00
2018-04-14T11:58:10.718Z,100168.99
2018-04-14T12:00:39.193Z,100158.23
2018-04-14T12:03:07.673Z,100172.48
2018-04-14T12:05:36.128Z,100174.67
2018-04-14T12:08:04.595Z,100156.95
2018-04-14T12:10:33.100Z,100163.39
2018-04-14T12:13:01.569Z,100153.88
2018-04-14T12:15:30.098Z,100151.53
2018-04-14T12:17:58.604Z,100149.59
2018-04-14T12:20:27.105Z,100154.86
2018-04-14T12:22:55.598Z,100155.63
2018-04-14T12:25:24.096Z,100150.32
2018-04-14T12:27:52.576Z,100151.20
2018-04-14T12:30:21.093Z,100148.89
2018-04-14T12:32:49.544Z,100142.55
2018-04-14T12:35:18.020Z,100134.50
2018-04-14T12:37:46.528Z,100135.48
2018-04-14T12:40:14.988Z,100126.00
2018-04-14T12:42:43.476Z,100129.88
2018-04-14T12:45:11.940Z,100126.66
2018-04-14T12:47:40.436Z,100126.70
2018-04-14T12:50:08.936Z,100124.89
2018-04-14T12:52:37.431Z,100126.35
2018-04-14T12:55:05.900Z,100123.97
2018-04-14T12:57:34.397Z,100120.78
2018-04-14T13:00:02.882Z,100114.99
2018-04-14T13:02:31.365Z,100118.70
2018-04-14T13:04:59.874Z,100118.31
2018-04-14T13:07:28.338Z,100109.72
2018-04-14T13:09:56.828Z,100111.83
2018-04-14T13:12:25.342Z,100095.97
2018-04-14T13:14:53.809Z,100103.81
2018-04-14T13:17:22.272Z,100095.13
2018-04-14T13:19:50.772Z,100103.52
2018-04-14T13:22:19.284Z,100097.41
2018-04-14T13:24:47.767Z,100102.75
2018-04-14T13:27:16.272Z,100097.45
2018-04-14T13:29:44.705Z,100088.34
2018-04-14T13:32:13.216Z,100091.84
2018-04-14T13:34:41.686Z,100095.64
2018-04-14T13:37:10.188Z,100083.78
2018-04-14T13:39:38.684Z,100082.48
2018-04-14T13:42:07.166Z,100091.23
2018-04-14T13:44:35.664Z,100081.58
2018-04-14T13:47:04.119Z,100091.39
2018-04-14T13:49:32.621Z,100088.42
2018-04-14T13:52:01.101Z,100088.37
2018-04-14T13:54:29.616Z,100083.65
2018-04-14T13:56:58.073Z,100086.19
2018-04-14T13:59:26.536Z,100079.69
2018-04-14T14:01:55.021Z,100082.30
2018-04-14T14:04:23.515Z,100073.09
2018-04-14T14:06:51.954Z,100084.39
2018-04-14T14:09:20.456Z,100081.17
2018-04-14T14:11:48.956Z,100082.33
2018-04-14T14:14:17.441Z,100092.36
2018-04-14T14:16:45.941Z,100073.66
2018-04-14T14:19:14.448Z,100080.80
2018-04-14T14:21:42.887Z,100084.76
2018-04-14T14:24:11.352Z,100078.77
2018-04-14T14:26:39.811Z,100086.30
2018-04-14T14:29:08.309Z,100085.68
2018-04-14T14:31:36.776Z,100079.57
2018-04-14T14:34:05.248Z,100083.52
2018-04-14T14:36:33.739Z,100074.34
2018-04-14T14:39:02.208Z,100079.55
2018-04-14T14:41:30.739Z,100082.41
2018-04-14T14:43:59.245Z,100081.50
2018-04-14T14:46:27.740Z,100085.74
2018-04-14T14:48:56.207Z,100088.09
2018-04-14T14:51:24.701Z,100088.77
2018-04-14T14:53:53.180Z,100084.31
2018-04-14T14:56:21.692Z,100082.92
2018-04-14T14:58:50.203Z,100085.00
2018-04-14T15:01:18.750Z,100083.75
2018-04-14T15:03:47.204Z,100091.06
2018-04-14T15:06:15.720Z,100087.76
2018-04-14T15:08:44.197Z,100086.22
2018-04-14T15:11:12.704Z,100085.30
2018-04-14T15:13:41.168Z,100083.14
2018-04-14T15:16:09.668Z,100095.62
2018-04-14T15:18:38.134Z,100091.70
2018-04-14T15:21:06.631Z,100100.64
2018-04-14T15:23:35.121Z,100096.19
2018-04-14T15:26:03.584Z,100100.64
2018-04-14T15:28:32.080Z,100092.42
2018-04-14T15:31:00.568Z,100094.64
2018-04-14T15:33:29.060Z,100091.41
2018-04-14T15:35:57.968Z,100098.03
2018-04-14T15:38:26.486Z,100091.55
2018-04-14T15:40:54.962Z,100098.25
2018-04-14T15:43:23.483Z,100091.55
2018-04-14T15:45:51.952Z,100098.41
2018-04-14T15:48:20.471Z,100095.48
2018-04-14T15:50:48.939Z,100110.35
2018-04-14T15:53:17.408Z,100111.27
2018-04-14T15:55:45.912Z,100107.70
2018-04-14T15:58:14.390Z,100111.39
2018-04-14T16:00:42.880Z,100109.82
2018-04-14T16:03:11.337Z,100113.03
2018-04-14T16:05:39.847Z,100105.83
2018-04-14T16:08:08.309Z,100112.86
2018-04-14T16:10:36.812Z,100121.91
2018-04-14T16:13:05.328Z,100126.13
2018-04-14T16:15:33.848Z,100130.78
2018-04-14T16:18:02.364Z,100128.53
2018-04-14T16:20:30.892Z,100125.66
2018-04-14T16:22:59.403Z,100127.12
2018-04-14T16:25:27.863Z,100125.84
2018-04-14T16:27:56.357Z,100135.75
2018-04-14T16:30:24.875Z,100128.61
2018-04-14T16:32:53.372Z,100131.97
2018-04-14T16:35:21.860Z,100134.41
2018-04-14T16:37:50.401Z,100136.64
2018-04-14T16:40:18.852Z,100139.60
2018-04-14T16:42:47.374Z,100139.77
2018-04-14T16:45:15.824Z,100144.98
2018-04-14T16:47:44.288Z,100149.23
2018-04-14T16:50:12.806Z,100154.52
2018-04-14T16:52:41.304Z,100156.56
2018-04-14T16:55:09.809Z,100154.84
2018-04-14T16:57:38.311Z,100160.14
2018-04-14T17:00:06.776Z,100153.53
2018-04-14T17:02:35.280Z,100166.98
2018-04-14T17:05:03.765Z,100171.29
2018-04-14T17:07:32.281Z,100177.75
2018-04-14T17:10:00.751Z,100180.72
2018-04-14T17:12:29.284Z,100179.31
2018-04-14T17:14:57.761Z,100187.39
2018-04-14T17:17:26.220Z,100195.89
2018-04-14T17:19:54.712Z,100204.53
2018-04-14T17:22:23.158Z,100208.78
2018-04-14T17:24:51.652Z,100213.47
2018-04-14T17:27:20.140Z,100219.23
2018-04-14T17:29:48.651Z,100233.87
2018-04-14T17:32:17.112Z,100236.34
2018-04-14T17:34:45.611Z,100244.70
2018-04-14T17:37:14.135Z,100242.84
2018-04-14T17:39:42.645Z,100256.12
2018-04-14T17:42:11.166Z,100259.52
2018-04-14T17:44:39.677Z,100274.92
2018-04-14T17:47:08.186Z,100284.72
2018-04-14T17:49:36.696Z,100284.00
2018-04-14T17:52:05.212Z,100288.65
2018-04-14T17:54:33.677Z,100288.05
2018-04-14T17:57:02.180Z,100293.09
2018-04-14T17:59:30.647Z,100306.77
2018-04-14T18:01:59.160Z,100305.89
2018-04-14T18:04:27.658Z,100307.55
2018-04-14T18:06:56.171Z,100323.41
2018-04-14T18:09:24.645Z,100335.24
2018-04-14T18:11:53.152Z,100331.26
2018-04-14T18:14:21.694Z,100341.27
2018-04-14T18:16:50.210Z,100352.13
2018-04-14T18:19:18.708Z,100351.63
2018-04-14T18:21:47.216Z,100344.44
2018-04-14T18:24:15.729Z,100364.66
2018-04-14T18:26:44.192Z,100357.40
2018-04-14T18:29:12.656Z,100370.70
2018-04-14T18:31:41.184Z,100378.31
2018-04-14T18:34:09.641Z,100373.95
2018-04-14T18:36:38.109Z,100381.61
2018-04-14T18:39:06.686Z,100388.14
2018-04-14T18:41:35.209Z,100377.08
2018-04-14T18:44:03.729Z,100389.64
2018-04-14T18:46:32.220Z,100394.34
2018-04-14T18:49:00.689Z,100395.52
2018-04-14T18:51:29.198Z,100380.75
2018-04-14T18:53:57.738Z,100391.94
2018-04-14T18:56:26.259Z,100394.80
2018-04-14T18:58:54.716Z,100404.18
2018-04-14T19:01:23.274Z,100406.55
2018-04-14T19:03:51.764Z,100405.88
2018-04-14T19:06:20.268Z,100418.45
2018-04-14T19:08:48.702Z,100425.33
2018-04-14T19:11:17.172Z,100430.16
2018-04-14T19:13:45.680Z,100431.02
2018-04-14T19:16:14.132Z,100432.40
2018-04-14T19:18:42.632Z,100432.97
2018-04-14T19:21:11.132Z,100430.22
2018-04-14T19:23:39.624Z,100431.20
2018-04-14T19:26:08.125Z,100436.83
2018-04-14T19:28:36.612Z,100436.98
2018-04-14T19:31:05.056Z,100438.52
2018-04-14T19:33:33.540Z,100434.12
2018-04-14T19:36:02.005Z,100437.28
2018-04-14T19:38:30.496Z,100437.70
2018-04-14T19:40:59.004Z,100436.72
2018-04-14T19:43:27.483Z,100433.97
2018-04-14T19:45:55.941Z,100433.28
2018-04-14T19:48:24.437Z,100437.11
2018-04-14T19:50:52.946Z,100445.10
2018-04-14T19:53:21.444Z,100432.15
2018-04-14T19:55:49.942Z,100447.27
2018-04-14T19:58:18.437Z,100448.77
2018-04-14T20:00:46.934Z,100454.48
2018-04-14T20:03:15.396Z,100452.27
2018-04-14T20:05:43.877Z,100451.45
2018-04-14T20:08:12.345Z,100447.53
2018-04-14T20:10:40.844Z,100446.83
2018-04-14T20:13:09.311Z,100453.42
2018-04-14T20:15:37.815Z,100446.00
2018-04-14T20:18:06.277Z,100456.36
2018-04-14T20:20:34.773Z,100444.28
2018-04-14T20:23:03.247Z,100457.13
2018-04-14T20:25:31.763Z,100455.95
2018-04-14T20:28:00.263Z,100461.22
2018-04-14T20:30:28.719Z,100466.70
2018-04-14T20:32:57.220Z,100461.17
2018-04-14T20:35:25.712Z,100463.52
2018-04-14T20:37:54.204Z,100461.25
2018-04-14T20:40:22.657Z,100460.98
2018-04-14T20:42:51.160Z,100462.42
2018-04-14T20:45:19.631Z,100463.73
2018-04-14T20:47:48.117Z,100467.34
2018-04-14T20:50:16.612Z,100470.77
2018-04-14T20:52:45.144Z,100478.16
2018-04-14T20:55:13.632Z,100480.64
2018-04-14T20:57:42.098Z,100484.57
2018-04-14T21:00:10.589Z,100483.23
2018-04-14T21:02:39.048Z,100482.52
2018-04-14T21:05:07.561Z,100489.55
2018-04-14T21:07:36.056Z,100488.17
2018-04-14T21:10:04.577Z,100487.38
2018-04-14T21:12:33.052Z,100489.75
2018-04-14T21:15:01.564Z,100490.78
2018-04-14T21:17:30.057Z,100503.11
2018-04-14T21:19:58.577Z,100507.29
2018-04-14T21:22:27.060Z,100504.07
2018-04-14T21:24:56.379Z,100508.28
2018-04-14T21:27:24.868Z,100512.52
2018-04-14T21:29:53.324Z,100501.34
2018-04-14T21:32:21.821Z,100516.98
2018-04-14T21:34:50.285Z,100519.85
2018-04-14T21:37:18.765Z,100520.64
2018-04-14T21:39:47.220Z,100518.81
2018-04-14T21:42:15.735Z,100532.52
2018-04-14T21:44:44.196Z,100534.06
2018-04-14T21:47:12.708Z,100530.73
2018-04-14T21:49:41.209Z,100531.91
2018-04-14T21:52:09.672Z,100528.70
2018-04-14T21:54:38.129Z,100530.48
2018-04-14T21:57:06.592Z,100531.64
2018-04-14T21:59:35.089Z,100542.30
2018-04-14T22:02:03.600Z,100546.92
2018-04-14T22:04:32.074Z,100551.77
2018-04-14T22:07:00.578Z,100556.63
2018-04-14T22:09:29.067Z,100554.65
2018-04-14T22:11:57.536Z,100556.97
2018-04-14T22:14:32.944Z,100562.51
2018-04-14T22:17:01.444Z,100565.44
2018-04-14T22:19:29.936Z,100563.23
2018-04-14T22:21:58.437Z,100561.73
2018-04-14T22:24:26.924Z,100571.67
2018-04-14T22:26:55.452Z,100566.82
2018-04-14T22:29:23.914Z,100567.64
2018-04-14T22:31:52.408Z,100570.44
2018-04-14T22:34:20.908Z,100560.30
2018-04-14T22:36:49.366Z,100555.77
2018-04-14T22:39:17.856Z,100556.55
2018-04-14T22:41:46.312Z,100560.88
2018-04-14T22:44:14.845Z,100563.73
2018-04-14T22:46:43.293Z,100558.17
2018-04-14T22:49:11.784Z,100560.11
2018-04-14T22:51:40.259Z,100557.89
2018-04-14T22:54:08.768Z,100557.32
2018-04-14T22:56:37.237Z,100569.09
2018-04-14T22:59:05.740Z,100567.02
2018-04-14T23:01:34.240Z,100575.06
2018-04-14T23:04:02.701Z,100565.52
2018-04-14T23:06:31.208Z,100573.88
2018-04-14T23:08:59.734Z,100568.38
2018-04-14T23:11:28.229Z,100571.70
2018-04-14T23:13:56.693Z,100576.16
2018-04-14T23:16:25.212Z,100579.20
2018-04-14T23:18:53.712Z,100574.88
2018-04-14T23:21:22.223Z,100573.80
2018-04-14T23:23:50.732Z,100570.84
2018-04-14T23:26:19.251Z,100569.83
2018-04-14T23:28:47.720Z,100569.80
2018-04-14T23:31:16.256Z,100562.17
2018-04-14T23:33:44.764Z,100567.11
2018-04-14T23:36:13.277Z,100571.22
2018-04-14T23:38:41.788Z,100582.37
2018-04-14T23:41:10.270Z,100579.13
2018-04-14T23:43:38.770Z,100576.98
2018-04-14T23:46:07.245Z,100584.97
2018-04-14T23:48:35.756Z,100576.22
2018-04-14T23:51:04.277Z,100579.13
2018-04-14T23:53:32.732Z,100565.25
2018-04-14T23:56:01.260Z,100576.29
2018-04-14T23:58:29.729Z,100576.32
